AGROMETEOROLOŠKI PORTAL

vinorodna pokrajina

Temelj dobrega kmetovanja

Pregled podatkov za lokacijo Moškanjci, meteorološka postaja 512056

Pregled senzorjev na lokaciji

ID Ime Zadnja
vrednost
Datum in čas
meritve
(lokalni čas)
Tip
senzorja
6488 Sončno sevanje (W/m2) 0 W/m2 4.2.2023 23:00 Pyranometer SP-Lite
6486 Omočenost lista (1,5 m) (U) 0 U 4.2.2023 23:00 A730WET
6491 Padavine (mm) 0 mm 4.2.2023 23:00 Generic 0.2 mm
6485 Relativna zračna vlaga (2 m) (%RH) 51 %RH 4.2.2023 23:00 50YA
6487 Temperatura tal (30 cm) (°C) 1,6 °C 4.2.2023 23:00 ST2
6484 Temperatura (2 m) (°C) 1,3 °C 4.2.2023 23:00 50YA
6489 Smer vetra (3 m) (°) 355 ° 4.2.2023 23:00 Generic 0 - 360
6490 Hitrost vetra (3 m) (km/h) 15 km/h 4.2.2023 23:00 Pro10/2 270 km/h

Pregled podatkov zadnjih 24 ur

Zap.
št.
Datum in čas
(lokalni čas)
Moškanjci
Sončno
sevanje
Omočenost
lista
(1,5
m)
Padavine Relativna
zračna
vlaga
(2
m)
Temperatura
tal
(30
cm)
Temperatura
(2
m)
Smer
vetra
(3
m)
Hitrost
vetra
(3
m)
1 4.2.2023 23:00 0 0 0 50,9 1,6 1,3 355,2 15
2 4.2.2023 22:30 0 0 0 54,4 1,8 1 327,2 12,7
3 4.2.2023 22:00 0 0 0 55,3 1,8 1,1 337,3 15,1
4 4.2.2023 21:30 0 0 0 56,7 2 1 344,1 13,5
5 4.2.2023 21:00 0 0 0 59,5 2,1 0,8 4,3 10
6 4.2.2023 20:30 0 0 0 61,4 2,3 0,8 18,9 11,2
7 4.2.2023 20:00 0 0 0 62,3 2,5 1 29,8 12
8 4.2.2023 19:30 0 0 0 59,1 2,8 1,5 38,5 12,2
9 4.2.2023 19:00 0 0 0 56,7 2,9 2 22,5 17,1
10 4.2.2023 18:30 0 0 0 55,8 3,1 2,4 21,6 19,5
11 4.2.2023 18:00 0 0 0 53,5 3,5 2,9 21,6 18,5
12 4.2.2023 17:30 0 0 0 51 3,7 3,5 359,2 19,8
13 4.2.2023 17:00 7,8 0 0 46,5 4,1 4,2 2,1 21,9
14 4.2.2023 16:30 112,4 0 0 41,9 4,3 4,9 331,9 28,8
15 4.2.2023 16:00 211,5 0 0 42,9 4,5 5,3 348,2 32,5
16 4.2.2023 15:30 292,6 0 0 43,5 4,6 5,4 338,1 27,9
17 4.2.2023 15:00 367,7 0 0 44,4 4,6 5,5 322,7 35,6
18 4.2.2023 14:30 429,6 0 0 44,4 4,7 5,6 324,9 33
19 4.2.2023 14:00 481,2 0 0 44,4 4,6 5,6 316,2 44,2
20 4.2.2023 13:30 515 0 0 43,6 4,5 6,1 313,7 38,9
21 4.2.2023 13:00 534,6 0 0 45,3 4,3 6,2 318,5 41,1
22 4.2.2023 12:30 536,9 0 0 49,6 4,1 6,4 324,7 38,1
23 4.2.2023 12:00 530,1 0 0 47,8 3,8 6,9 309 39,9
24 4.2.2023 11:30 497,7 0 0 51,9 3,4 7 304,9 31
25 4.2.2023 11:00 457,3 0 0 54,2 2,7 7 315,6 27,9
26 4.2.2023 10:30 307,7 0 0 65,5 2,3 6,5 325,9 23,4
27 4.2.2023 10:00 342,2 0 0 73,5 1,8 6 306,6 23,4
28 4.2.2023 09:30 284,8 0 0 75,1 1,5 5,5 297,6 25,3
29 4.2.2023 09:00 163,5 1 0 74,1 1,4 5,2 292,2 27,4
30 4.2.2023 08:30 67,9 6 0 79,1 1,3 3,4 308,7 11,2
31 4.2.2023 08:00 45,4 10 0 84,5 1,4 2,1 241,4 8,6
32 4.2.2023 07:30 3,9 4 0 92,5 1,5 0 228,1 11,3
33 4.2.2023 07:00 0 2 0 94,9 1,5 -0,6 187,6 5,2
34 4.2.2023 06:30 0 7 0 95,2 1,5 -0,8 285,3 4,9
35 4.2.2023 06:00 0 9 0 93,5 1,7 -0,1 238,5 4,4
36 4.2.2023 05:30 0 9 0 94,2 1,9 -0,3 203,7 5,1
37 4.2.2023 05:00 0 8 0 93,9 1,9 -0,2 248,9 3,8
38 4.2.2023 04:30 0 7 0 92,3 1,8 0,6 275,6 5,3
39 4.2.2023 04:00 0 6 0 94,7 1,9 -0,3 81,5 6,3
40 4.2.2023 03:30 0 8 0 94,4 2,2 0,1 142,9 2,4
41 4.2.2023 03:00 0 8 0 92,1 2,3 0,8 216 6,2
42 4.2.2023 02:30 0 2 0 87,2 2,4 2,5 143,5 5,5
43 4.2.2023 02:00 0 9 0 85,6 2,5 3 359,6 6,7
44 4.2.2023 01:30 0 6 0 90,2 2,5 1,6 10,1 7,8
45 4.2.2023 01:00 0 6 0 90,7 2,7 1,4 168,6 4,8
46 4.2.2023 00:30 0 7 0 90,4 2,7 1,4 296,9 1,8
47 4.2.2023 00:00 0 0 0 87 3 2,1 103 4,9
48 3.2.2023 23:30 0 0 0 84,8 2,9 3,1 179,9 6,4